sensor_id;sensor_type;location;lat;lon;timestamp;pressure;altitude;pressure_sealevel;temperature;humidity
38022;BME280;23832;43.216;27.946;2023-02-20T00:00:29;100567.72;;;17.86;50.86
38022;BME280;23832;43.216;27.946;2023-02-20T00:02:31;100565.06;;;17.86;50.53
38022;BME280;23832;43.216;27.946;2023-02-20T00:04:33;100568.19;;;17.83;50.14
38022;BME280;23832;43.216;27.946;2023-02-20T00:06:35;100562.47;;;17.79;50.02
38022;BME280;23832;43.216;27.946;2023-02-20T00:08:37;100562.69;;;17.78;49.83
38022;BME280;23832;43.216;27.946;2023-02-20T00:10:40;100567.19;;;17.77;49.55
38022;BME280;23832;43.216;27.946;2023-02-20T00:12:43;100558.38;;;17.77;49.60
38022;BME280;23832;43.216;27.946;2023-02-20T00:14:44;100559.19;;;17.77;49.14
38022;BME280;23832;43.216;27.946;2023-02-20T00:16:46;100557.00;;;17.74;49.12
38022;BME280;23832;43.216;27.946;2023-02-20T00:18:51;100552.69;;;17.73;48.79
38022;BME280;23832;43.216;27.946;2023-02-20T00:20:52;100552.91;;;17.72;48.46
38022;BME280;23832;43.216;27.946;2023-02-20T00:22:54;100553.13;;;17.70;48.54
38022;BME280;23832;43.216;27.946;2023-02-20T00:24:56;100557.03;;;17.68;48.61
38022;BME280;23832;43.216;27.946;2023-02-20T00:26:58;100545.78;;;17.66;48.70
38022;BME280;23832;43.216;27.946;2023-02-20T00:29:01;100544.97;;;17.65;48.33
38022;BME280;23832;43.216;27.946;2023-02-20T00:31:03;100531.03;;;17.63;48.53
38022;BME280;23832;43.216;27.946;2023-02-20T00:33:05;100536.38;;;17.63;48.32
38022;BME280;23832;43.216;27.946;2023-02-20T00:35:08;100538.22;;;17.63;48.31
38022;BME280;23832;43.216;27.946;2023-02-20T00:37:09;100541.31;;;17.59;48.49
38022;BME280;23832;43.216;27.946;2023-02-20T00:39:12;100533.53;;;17.58;48.22
38022;BME280;23832;43.216;27.946;2023-02-20T00:41:14;100540.72;;;17.57;48.28
38022;BME280;23832;43.216;27.946;2023-02-20T00:43:17;100545.25;;;17.57;48.32
38022;BME280;23832;43.216;27.946;2023-02-20T00:45:20;100536.44;;;17.56;48.06
38022;BME280;23832;43.216;27.946;2023-02-20T00:47:22;100530.50;;;17.54;48.08
38022;BME280;23832;43.216;27.946;2023-02-20T00:49:24;100537.69;;;17.54;48.06
38022;BME280;23832;43.216;27.946;2023-02-20T00:51:26;100538.94;;;17.51;47.75
38022;BME280;23832;43.216;27.946;2023-02-20T00:53:28;100546.34;;;17.49;47.97
38022;BME280;23832;43.216;27.946;2023-02-20T00:55:30;100548.41;;;17.47;47.85
38022;BME280;23832;43.216;27.946;2023-02-20T00:57:31;100557.44;;;17.46;47.92
38022;BME280;23832;43.216;27.946;2023-02-20T00:59:33;100560.53;;;17.43;48.20
38022;BME280;23832;43.216;27.946;2023-02-20T01:01:36;100560.53;;;17.43;47.93
38022;BME280;23832;43.216;27.946;2023-02-20T01:03:38;100575.72;;;17.43;47.93
38022;BME280;23832;43.216;27.946;2023-02-20T01:05:39;100567.34;;;17.39;48.08
38022;BME280;23832;43.216;27.946;2023-02-20T01:07:42;100575.56;;;17.38;47.86
38022;BME280;23832;43.216;27.946;2023-02-20T01:09:43;100571.50;;;17.35;47.87
38022;BME280;23832;43.216;27.946;2023-02-20T01:11:45;100574.34;;;17.34;47.98
38022;BME280;23832;43.216;27.946;2023-02-20T01:13:47;100578.06;;;17.33;47.81
38022;BME280;23832;43.216;27.946;2023-02-20T01:15:51;100587.31;;;17.30;47.92
38022;BME280;23832;43.216;27.946;2023-02-20T01:17:55;100579.78;;;17.27;47.77
38022;BME280;23832;43.216;27.946;2023-02-20T01:19:56;100573.00;;;17.24;47.76
38022;BME280;23832;43.216;27.946;2023-02-20T01:21:58;100591.28;;;17.21;48.00
38022;BME280;23832;43.216;27.946;2023-02-20T01:24:02;100578.59;;;17.16;47.97
38022;BME280;23832;43.216;27.946;2023-02-20T01:26:03;100585.19;;;17.14;47.73
38022;BME280;23832;43.216;27.946;2023-02-20T01:28:05;100590.97;;;17.11;48.08
38022;BME280;23832;43.216;27.946;2023-02-20T01:30:07;100580.75;;;17.08;48.28
38022;BME280;23832;43.216;27.946;2023-02-20T01:32:11;100591.41;;;17.08;47.98
38022;BME280;23832;43.216;27.946;2023-02-20T01:34:15;100590.19;;;17.03;48.17
38022;BME280;23832;43.216;27.946;2023-02-20T01:36:17;100586.94;;;17.01;47.97
38022;BME280;23832;43.216;27.946;2023-02-20T01:38:20;100596.16;;;16.99;48.06
38022;BME280;23832;43.216;27.946;2023-02-20T01:40:21;100585.94;;;16.96;48.34
38022;BME280;23832;43.216;27.946;2023-02-20T01:42:24;100586.16;;;16.94;47.94
38022;BME280;23832;43.216;27.946;2023-02-20T01:44:27;100588.22;;;16.92;47.73
38022;BME280;23832;43.216;27.946;2023-02-20T01:46:48;100586.19;;;16.88;47.99
38022;BME280;23832;43.216;27.946;2023-02-20T01:48:50;100587.88;;;16.82;47.94
38022;BME280;23832;43.216;27.946;2023-02-20T01:50:56;100599.16;;;16.78;48.07
38022;BME280;23832;43.216;27.946;2023-02-20T01:53:02;100597.75;;;16.75;48.12
38022;BME280;23832;43.216;27.946;2023-02-20T01:55:08;100593.69;;;16.72;48.13
38022;BME280;23832;43.216;27.946;2023-02-20T01:57:12;100602.47;;;16.66;48.47
38022;BME280;23832;43.216;27.946;2023-02-20T01:59:17;100596.78;;;16.63;48.60
38022;BME280;23832;43.216;27.946;2023-02-20T02:01:21;100588.16;;;16.61;47.99
38022;BME280;23832;43.216;27.946;2023-02-20T02:03:23;100593.31;;;16.56;48.75
38022;BME280;23832;43.216;27.946;2023-02-20T02:05:26;100599.06;;;16.53;48.42
38022;BME280;23832;43.216;27.946;2023-02-20T02:07:30;100599.94;;;16.46;48.58
38022;BME280;23832;43.216;27.946;2023-02-20T02:09:36;100604.03;;;16.42;48.83
38022;BME280;23832;43.216;27.946;2023-02-20T02:11:39;100607.94;;;16.40;48.89
38022;BME280;23832;43.216;27.946;2023-02-20T02:13:42;100603.84;;;16.37;48.93
38022;BME280;23832;43.216;27.946;2023-02-20T02:15:43;100604.69;;;16.38;48.98
38022;BME280;23832;43.216;27.946;2023-02-20T02:17:51;100603.22;;;16.35;49.03
38022;BME280;23832;43.216;27.946;2023-02-20T02:20:14;100614.31;;;16.32;49.20
38022;BME280;23832;43.216;27.946;2023-02-20T02:22:35;100603.06;;;16.30;49.33
38022;BME280;23832;43.216;27.946;2023-02-20T02:24:57;100599.81;;;16.28;49.25
38022;BME280;23832;43.216;27.946;2023-02-20T02:27:10;100595.69;;;16.26;49.46
38022;BME280;23832;43.216;27.946;2023-02-20T02:31:51;100592.06;;;16.20;49.30
38022;BME280;23832;43.216;27.946;2023-02-20T02:36:28;100586.97;;;16.12;49.80
38022;BME280;23832;43.216;27.946;2023-02-20T02:38:36;100585.75;;;16.08;49.35
38022;BME280;23832;43.216;27.946;2023-02-20T02:40:47;100580.03;;;16.04;49.61
38022;BME280;23832;43.216;27.946;2023-02-20T02:42:56;100580.25;;;16.03;49.71
38022;BME280;23832;43.216;27.946;2023-02-20T02:45:02;100596.41;;;16.01;49.61
38022;BME280;23832;43.216;27.946;2023-02-20T02:47:07;100594.78;;;16.00;49.93
38022;BME280;23832;43.216;27.946;2023-02-20T02:49:13;100614.63;;;15.98;50.00
38022;BME280;23832;43.216;27.946;2023-02-20T02:51:19;100611.97;;;15.98;50.04
38022;BME280;23832;43.216;27.946;2023-02-20T02:53:23;100625.47;;;15.96;50.23
38022;BME280;23832;43.216;27.946;2023-02-20T02:55:25;100628.34;;;15.95;50.07
38022;BME280;23832;43.216;27.946;2023-02-20T02:57:27;100622.22;;;15.94;50.09
38022;BME280;23832;43.216;27.946;2023-02-20T02:59:30;100625.06;;;15.93;50.31
38022;BME280;23832;43.216;27.946;2023-02-20T03:01:33;100652.06;;;15.89;50.10
38022;BME280;23832;43.216;27.946;2023-02-20T03:03:38;100633.66;;;15.88;50.10
38022;BME280;23832;43.216;27.946;2023-02-20T03:05:42;100646.34;;;15.86;50.17
38022;BME280;23832;43.216;27.946;2023-02-20T03:07:46;100645.53;;;15.85;50.33
38022;BME280;23832;43.216;27.946;2023-02-20T03:09:53;100651.28;;;15.82;50.68
38022;BME280;23832;43.216;27.946;2023-02-20T03:11:58;100660.25;;;15.81;50.79
38022;BME280;23832;43.216;27.946;2023-02-20T03:14:01;100669.25;;;15.80;50.74
38022;BME280;23832;43.216;27.946;2023-02-20T03:16:25;100668.66;;;15.78;50.76
38022;BME280;23832;43.216;27.946;2023-02-20T03:18:30;100690.72;;;15.79;50.57
38022;BME280;23832;43.216;27.946;2023-02-20T03:20:33;100706.66;;;15.79;50.88
38022;BME280;23832;43.216;27.946;2023-02-20T03:22:36;100720.19;;;15.77;50.94
38022;BME280;23832;43.216;27.946;2023-02-20T03:24:40;100732.66;;;15.77;51.00
38022;BME280;23832;43.216;27.946;2023-02-20T03:26:56;100733.03;;;15.80;50.77
38022;BME280;23832;43.216;27.946;2023-02-20T03:29:00;100750.44;;;15.83;50.83
38022;BME280;23832;43.216;27.946;2023-02-20T03:31:03;100745.75;;;15.85;50.94
38022;BME280;23832;43.216;27.946;2023-02-20T03:33:08;100752.47;;;15.87;51.31
38022;BME280;23832;43.216;27.946;2023-02-20T03:35:28;100757.59;;;15.89;51.48
38022;BME280;23832;43.216;27.946;2023-02-20T03:37:49;100768.03;;;15.91;51.39
38022;BME280;23832;43.216;27.946;2023-02-20T03:40:11;100781.94;;;15.93;51.45
38022;BME280;23832;43.216;27.946;2023-02-20T03:42:34;100794.00;;;15.95;51.22
38022;BME280;23832;43.216;27.946;2023-02-20T03:44:55;100807.69;;;15.99;51.61
38022;BME280;23832;43.216;27.946;2023-02-20T03:46:58;100816.50;;;15.99;51.64
38022;BME280;23832;43.216;27.946;2023-02-20T03:49:02;100818.97;;;16.01;51.59
38022;BME280;23832;43.216;27.946;2023-02-20T03:51:04;100841.66;;;16.03;51.70
38022;BME280;23832;43.216;27.946;2023-02-20T03:53:24;100848.41;;;16.06;51.99
38022;BME280;23832;43.216;27.946;2023-02-20T03:55:26;100868.66;;;16.07;51.91
38022;BME280;23832;43.216;27.946;2023-02-20T03:57:29;100868.25;;;16.03;51.61
38022;BME280;23832;43.216;27.946;2023-02-20T03:59:35;100878.28;;;16.01;51.55
38022;BME280;23832;43.216;27.946;2023-02-20T04:01:39;100877.66;;;15.99;51.61
38022;BME280;23832;43.216;27.946;2023-02-20T04:03:43;100883.38;;;15.96;51.51
38022;BME280;23832;43.216;27.946;2023-02-20T04:05:46;100885.84;;;15.91;51.21
38022;BME280;23832;43.216;27.946;2023-02-20T04:07:58;100894.19;;;15.88;51.04
38022;BME280;23832;43.216;27.946;2023-02-20T04:10:03;100887.66;;;15.84;50.89
38022;BME280;23832;43.216;27.946;2023-02-20T04:12:07;100891.34;;;15.83;50.71
38022;BME280;23832;43.216;27.946;2023-02-20T04:14:12;100887.22;;;15.80;50.28
38022;BME280;23832;43.216;27.946;2023-02-20T04:16:15;100876.19;;;15.77;50.27
38022;BME280;23832;43.216;27.946;2023-02-20T04:18:17;100875.56;;;15.75;50.10
38022;BME280;23832;43.216;27.946;2023-02-20T04:20:20;100862.66;;;15.72;50.07
38022;BME280;23832;43.216;27.946;2023-02-20T04:22:22;100871.88;;;15.69;49.91
38022;BME280;23832;43.216;27.946;2023-02-20T04:24:27;100872.47;;;15.65;49.41
38022;BME280;23832;43.216;27.946;2023-02-20T04:26:30;100868.75;;;15.59;49.17
38022;BME280;23832;43.216;27.946;2023-02-20T04:28:31;100877.50;;;15.53;49.07
38022;BME280;23832;43.216;27.946;2023-02-20T04:30:33;100888.31;;;15.45;48.56
38022;BME280;23832;43.216;27.946;2023-02-20T04:32:36;100901.75;;;15.37;48.58
38022;BME280;23832;43.216;27.946;2023-02-20T04:34:38;100907.25;;;15.28;48.44
38022;BME280;23832;43.216;27.946;2023-02-20T04:36:39;100921.31;;;15.22;48.50
38022;BME280;23832;43.216;27.946;2023-02-20T04:38:41;100931.69;;;15.17;48.41
38022;BME280;23832;43.216;27.946;2023-02-20T04:40:43;100927.19;;;15.11;48.17
38022;BME280;23832;43.216;27.946;2023-02-20T04:42:45;100924.91;;;15.08;48.13
38022;BME280;23832;43.216;27.946;2023-02-20T04:44:47;100920.81;;;15.05;48.09
38022;BME280;23832;43.216;27.946;2023-02-20T04:46:48;100923.66;;;15.04;48.01
38022;BME280;23832;43.216;27.946;2023-02-20T04:48:51;100920.56;;;15.00;47.81
38022;BME280;23832;43.216;27.946;2023-02-20T04:50:53;100919.31;;;14.96;48.09
38022;BME280;23832;43.216;27.946;2023-02-20T04:52:55;100927.69;;;14.93;48.33
38022;BME280;23832;43.216;27.946;2023-02-20T04:54:58;100937.66;;;14.91;48.11
38022;BME280;23832;43.216;27.946;2023-02-20T04:57:00;100936.22;;;14.89;48.25
38022;BME280;23832;43.216;27.946;2023-02-20T04:59:02;100932.94;;;14.87;48.40
38022;BME280;23832;43.216;27.946;2023-02-20T05:01:04;100934.97;;;14.85;48.47
38022;BME280;23832;43.216;27.946;2023-02-20T05:03:05;100939.63;;;14.83;48.48
38022;BME280;23832;43.216;27.946;2023-02-20T05:05:14;100942.28;;;14.83;48.42
38022;BME280;23832;43.216;27.946;2023-02-20T05:07:16;100942.69;;;14.80;48.63
38022;BME280;23832;43.216;27.946;2023-02-20T05:09:18;100955.34;;;14.77;48.48
38022;BME280;23832;43.216;27.946;2023-02-20T05:11:20;100959.00;;;14.76;48.67
38022;BME280;23832;43.216;27.946;2023-02-20T05:13:22;100962.69;;;14.75;48.68
38022;BME280;23832;43.216;27.946;2023-02-20T05:15:24;100967.16;;;14.75;48.88
38022;BME280;23832;43.216;27.946;2023-02-20T05:17:26;100972.63;;;14.73;48.73
38022;BME280;23832;43.216;27.946;2023-02-20T05:19:27;100979.16;;;14.71;48.73
38022;BME280;23832;43.216;27.946;2023-02-20T05:21:31;100984.66;;;14.69;48.82
38022;BME280;23832;43.216;27.946;2023-02-20T05:23:50;100977.72;;;14.68;48.78
38022;BME280;23832;43.216;27.946;2023-02-20T05:25:51;100994.03;;;14.65;48.86
38022;BME280;23832;43.216;27.946;2023-02-20T05:27:54;101003.38;;;14.61;48.67
38022;BME280;23832;43.216;27.946;2023-02-20T05:29:56;101007.22;;;14.59;48.49
38022;BME280;23832;43.216;27.946;2023-02-20T05:31:58;101007.78;;;14.54;48.59
38022;BME280;23832;43.216;27.946;2023-02-20T05:33:59;101006.34;;;14.52;48.71
38022;BME280;23832;43.216;27.946;2023-02-20T05:36:01;101018.16;;;14.49;48.90
38022;BME280;23832;43.216;27.946;2023-02-20T05:38:04;101011.38;;;14.46;49.00
38022;BME280;23832;43.216;27.946;2023-02-20T05:40:06;101017.69;;;14.45;48.70
38022;BME280;23832;43.216;27.946;2023-02-20T05:42:08;101023.16;;;14.44;48.82
38022;BME280;23832;43.216;27.946;2023-02-20T05:44:09;101012.94;;;14.41;48.61
38022;BME280;23832;43.216;27.946;2023-02-20T05:46:11;101027.75;;;14.35;48.47
38022;BME280;23832;43.216;27.946;2023-02-20T05:48:13;101031.34;;;14.28;48.86
38022;BME280;23832;43.216;27.946;2023-02-20T05:50:15;101038.06;;;14.24;49.02
38022;BME280;23832;43.216;27.946;2023-02-20T05:52:17;101049.03;;;14.20;49.02
38022;BME280;23832;43.216;27.946;2023-02-20T05:54:20;101044.91;;;14.18;49.08
38022;BME280;23832;43.216;27.946;2023-02-20T05:56:22;101051.22;;;14.17;49.03
38022;BME280;23832;43.216;27.946;2023-02-20T05:58:25;101056.72;;;14.15;49.35
38022;BME280;23832;43.216;27.946;2023-02-20T06:00:28;101077.09;;;14.15;49.57
38022;BME280;23832;43.216;27.946;2023-02-20T06:02:30;101074.84;;;14.12;49.72
38022;BME280;23832;43.216;27.946;2023-02-20T06:04:32;101092.56;;;14.11;49.40
38022;BME280;23832;43.216;27.946;2023-02-20T06:06:35;101099.88;;;14.09;49.33
38022;BME280;23832;43.216;27.946;2023-02-20T06:08:37;101106.19;;;14.08;49.38
38022;BME280;23832;43.216;27.946;2023-02-20T06:10:40;101112.50;;;14.07;49.18
38022;BME280;23832;43.216;27.946;2023-02-20T06:12:42;101114.13;;;14.08;49.46
38022;BME280;23832;43.216;27.946;2023-02-20T06:14:44;101118.63;;;14.08;49.34
38022;BME280;23832;43.216;27.946;2023-02-20T06:16:46;101131.88;;;14.08;49.09
38022;BME280;23832;43.216;27.946;2023-02-20T06:18:47;101132.06;;;14.06;49.06
38022;BME280;23832;43.216;27.946;2023-02-20T06:20:49;101137.75;;;14.03;48.67
38022;BME280;23832;43.216;27.946;2023-02-20T06:22:51;101138.09;;;14.00;49.07
38022;BME280;23832;43.216;27.946;2023-02-20T06:24:52;101147.03;;;13.99;49.12
38022;BME280;23832;43.216;27.946;2023-02-20T06:26:55;101154.38;;;13.97;49.06
38022;BME280;23832;43.216;27.946;2023-02-20T06:28:57;101163.50;;;13.95;48.90
38022;BME280;23832;43.216;27.946;2023-02-20T06:30:59;101158.75;;;13.90;48.78
38022;BME280;23832;43.216;27.946;2023-02-20T06:33:01;101158.28;;;13.86;48.84
38022;BME280;23832;43.216;27.946;2023-02-20T06:35:04;101159.50;;;13.84;48.86
38022;BME280;23832;43.216;27.946;2023-02-20T06:37:06;101156.19;;;13.82;48.65
38022;BME280;23832;43.216;27.946;2023-02-20T06:39:08;101161.66;;;13.80;48.95
38022;BME280;23832;43.216;27.946;2023-02-20T06:41:10;101169.16;;;13.77;49.05
38022;BME280;23832;43.216;27.946;2023-02-20T06:43:14;101176.94;;;13.78;48.68
38022;BME280;23832;43.216;27.946;2023-02-20T06:45:15;101182.41;;;13.77;48.30
38022;BME280;23832;43.216;27.946;2023-02-20T06:47:17;101186.72;;;13.78;48.23
38022;BME280;23832;43.216;27.946;2023-02-20T06:49:19;101183.41;;;13.76;48.35
38022;BME280;23832;43.216;27.946;2023-02-20T06:51:22;101189.69;;;13.75;48.50
38022;BME280;23832;43.216;27.946;2023-02-20T06:53:23;101200.47;;;13.73;48.72
38022;BME280;23832;43.216;27.946;2023-02-20T06:55:25;101194.03;;;13.76;48.82
38022;BME280;23832;43.216;27.946;2023-02-20T06:57:27;101198.50;;;13.75;49.00
38022;BME280;23832;43.216;27.946;2023-02-20T06:59:30;101193.19;;;13.75;48.70
38022;BME280;23832;43.216;27.946;2023-02-20T07:01:39;101198.66;;;13.74;48.20
38022;BME280;23832;43.216;27.946;2023-02-20T07:03:41;101193.09;;;13.69;48.58
38022;BME280;23832;43.216;27.946;2023-02-20T07:05:44;101204.88;;;13.66;48.77
38022;BME280;23832;43.216;27.946;2023-02-20T07:07:46;101205.03;;;13.64;48.63
38022;BME280;23832;43.216;27.946;2023-02-20T07:09:47;101206.03;;;13.63;48.22
38022;BME280;23832;43.216;27.946;2023-02-20T07:11:50;101198.28;;;13.62;48.27
38022;BME280;23832;43.216;27.946;2023-02-20T07:13:52;101204.13;;;13.57;48.58
38022;BME280;23832;43.216;27.946;2023-02-20T07:15:56;101226.66;;;13.53;48.53
38022;BME280;23832;43.216;27.946;2023-02-20T07:17:57;101223.38;;;13.51;48.65
38022;BME280;23832;43.216;27.946;2023-02-20T07:19:59;101234.31;;;13.48;49.02
38022;BME280;23832;43.216;27.946;2023-02-20T07:22:01;101225.53;;;13.48;49.25
38022;BME280;23832;43.216;27.946;2023-02-20T07:24:02;101223.06;;;13.46;49.05
38022;BME280;23832;43.216;27.946;2023-02-20T07:26:04;101215.13;;;13.46;49.70
38022;BME280;23832;43.216;27.946;2023-02-20T07:28:06;101232.00;;;13.45;49.39
38022;BME280;23832;43.216;27.946;2023-02-20T07:30:09;101229.91;;;13.41;49.08
38022;BME280;23832;43.216;27.946;2023-02-20T07:32:12;101237.72;;;13.34;49.43
38022;BME280;23832;43.216;27.946;2023-02-20T07:34:14;101244.22;;;13.31;49.42
38022;BME280;23832;43.216;27.946;2023-02-20T07:36:16;101242.06;;;13.27;49.78
38022;BME280;23832;43.216;27.946;2023-02-20T07:38:18;101252.84;;;13.25;49.68
38022;BME280;23832;43.216;27.946;2023-02-20T07:40:19;101259.78;;;13.26;50.37
38022;BME280;23832;43.216;27.946;2023-02-20T07:42:21;101265.56;;;13.30;49.82
38022;BME280;23832;43.216;27.946;2023-02-20T07:44:23;101266.09;;;13.25;49.47
38022;BME280;23832;43.216;27.946;2023-02-20T07:46:25;101292.75;;;13.24;49.39
38022;BME280;23832;43.216;27.946;2023-02-20T07:48:28;101267.25;;;13.23;49.54
38022;BME280;23832;43.216;27.946;2023-02-20T07:50:29;101267.09;;;13.16;49.10
38022;BME280;23832;43.216;27.946;2023-02-20T07:52:31;101272.06;;;13.11;49.54
38022;BME280;23832;43.216;27.946;2023-02-20T07:54:33;101284.03;;;13.07;49.70
38022;BME280;23832;43.216;27.946;2023-02-20T07:56:35;101298.44;;;13.04;49.67
38022;BME280;23832;43.216;27.946;2023-02-20T07:58:37;101285.53;;;13.01;50.24
38022;BME280;23832;43.216;27.946;2023-02-20T08:00:38;101294.47;;;13.00;50.19
38022;BME280;23832;43.216;27.946;2023-02-20T08:02:40;101291.19;;;12.98;49.80
38022;BME280;23832;43.216;27.946;2023-02-20T08:04:43;101291.00;;;13.00;50.38
38022;BME280;23832;43.216;27.946;2023-02-20T08:06:45;101293.31;;;13.03;50.79
38022;BME280;23832;43.216;27.946;2023-02-20T08:08:47;101292.97;;;13.06;50.44
38022;BME280;23832;43.216;27.946;2023-02-20T08:10:51;101298.44;;;13.04;50.10
38022;BME280;23832;43.216;27.946;2023-02-20T08:12:53;101302.22;;;13.02;50.36
38022;BME280;23832;43.216;27.946;2023-02-20T08:14:55;101305.69;;;13.02;51.22
38022;BME280;23832;43.216;27.946;2023-02-20T08:16:57;101314.50;;;13.03;51.10
38022;BME280;23832;43.216;27.946;2023-02-20T08:18:58;101307.38;;;13.03;50.94
38022;BME280;23832;43.216;27.946;2023-02-20T08:21:02;101315.31;;;13.03;50.74
38022;BME280;23832;43.216;27.946;2023-02-20T08:23:03;101310.03;;;13.03;51.18
38022;BME280;23832;43.216;27.946;2023-02-20T08:25:06;101312.69;;;13.03;51.38
38022;BME280;23832;43.216;27.946;2023-02-20T08:27:07;101321.44;;;13.04;51.28
38022;BME280;23832;43.216;27.946;2023-02-20T08:29:09;101317.78;;;13.05;51.20
38022;BME280;23832;43.216;27.946;2023-02-20T08:31:11;101318.13;;;13.02;51.28
38022;BME280;23832;43.216;27.946;2023-02-20T08:33:13;101319.28;;;12.99;51.39
38022;BME280;23832;43.216;27.946;2023-02-20T08:35:15;101318.81;;;12.96;51.08
38022;BME280;23832;43.216;27.946;2023-02-20T08:37:18;101330.09;;;12.90;51.81
38022;BME280;23832;43.216;27.946;2023-02-20T08:39:20;101332.41;;;12.85;52.37
38022;BME280;23832;43.216;27.946;2023-02-20T08:41:22;101334.56;;;12.81;52.77
38022;BME280;23832;43.216;27.946;2023-02-20T08:43:23;101342.50;;;12.81;52.81
38022;BME280;23832;43.216;27.946;2023-02-20T08:45:27;101342.88;;;12.78;52.96
38022;BME280;23832;43.216;27.946;2023-02-20T08:47:29;101347.66;;;12.74;53.47
38022;BME280;23832;43.216;27.946;2023-02-20T08:49:33;101351.81;;;12.69;53.77
38022;BME280;23832;43.216;27.946;2023-02-20T08:51:35;101354.13;;;12.64;54.17
38022;BME280;23832;43.216;27.946;2023-02-20T08:53:38;101363.59;;;12.58;54.51
38022;BME280;23832;43.216;27.946;2023-02-20T08:55:40;101366.72;;;12.54;54.27
38022;BME280;23832;43.216;27.946;2023-02-20T08:57:42;101365.41;;;12.49;53.95
38022;BME280;23832;43.216;27.946;2023-02-20T08:59:44;101370.19;;;12.46;54.78
38022;BME280;23832;43.216;27.946;2023-02-20T09:01:46;101370.53;;;12.43;54.80
38022;BME280;23832;43.216;27.946;2023-02-20T09:03:48;101371.53;;;12.42;54.68
38022;BME280;23832;43.216;27.946;2023-02-20T09:05:50;101370.72;;;12.41;54.87
38022;BME280;23832;43.216;27.946;2023-02-20T09:10:10;101387.56;;;12.40;54.78
38022;BME280;23832;43.216;27.946;2023-02-20T09:12:12;101388.88;;;12.36;55.34
38022;BME280;23832;43.216;27.946;2023-02-20T09:14:14;101371.84;;;12.31;55.21
38022;BME280;23832;43.216;27.946;2023-02-20T09:16:16;101388.41;;;12.25;55.80
38022;BME280;23832;43.216;27.946;2023-02-20T09:18:19;101378.31;;;12.20;56.39
38022;BME280;23832;43.216;27.946;2023-02-20T09:20:21;101379.28;;;12.19;56.35
38022;BME280;23832;43.216;27.946;2023-02-20T09:22:23;101383.75;;;12.18;55.92
38022;BME280;23832;43.216;27.946;2023-02-20T09:24:25;101397.16;;;12.17;55.90
38022;BME280;23832;43.216;27.946;2023-02-20T09:26:32;101407.72;;;12.17;55.82
38022;BME280;23832;43.216;27.946;2023-02-20T09:28:34;101406.06;;;12.16;56.26
38022;BME280;23832;43.216;27.946;2023-02-20T09:30:35;101427.22;;;12.16;55.71
38022;BME280;23832;43.216;27.946;2023-02-20T09:32:37;101428.03;;;12.16;56.48
38022;BME280;23832;43.216;27.946;2023-02-20T09:34:39;101423.59;;;12.17;55.93
38022;BME280;23832;43.216;27.946;2023-02-20T09:36:40;101427.69;;;12.11;55.63
38022;BME280;23832;43.216;27.946;2023-02-20T09:38:42;101433.78;;;12.04;55.99
38022;BME280;23832;43.216;27.946;2023-02-20T09:40:44;101442.38;;;11.98;56.85
38022;BME280;23832;43.216;27.946;2023-02-20T09:42:53;101442.56;;;11.96;56.85
38022;BME280;23832;43.216;27.946;2023-02-20T09:45:00;101442.69;;;11.94;56.90
38022;BME280;23832;43.216;27.946;2023-02-20T09:47:05;101436.75;;;11.92;55.75
38022;BME280;23832;43.216;27.946;2023-02-20T09:49:10;101436.56;;;11.86;56.36
38022;BME280;23832;43.216;27.946;2023-02-20T09:51:13;101426.94;;;11.77;56.34
38022;BME280;23832;43.216;27.946;2023-02-20T09:53:17;101434.38;;;11.73;57.29
38022;BME280;23832;43.216;27.946;2023-02-20T09:55:21;101438.16;;;11.71;58.51
38022;BME280;23832;43.216;27.946;2023-02-20T09:57:24;101436.00;;;11.74;58.48
38022;BME280;23832;43.216;27.946;2023-02-20T09:59:31;101443.63;;;11.77;58.91
38022;BME280;23832;43.216;27.946;2023-02-20T10:01:34;101445.00;;;11.81;58.57
38022;BME280;23832;43.216;27.946;2023-02-20T10:03:38;101448.28;;;11.83;58.13
38022;BME280;23832;43.216;27.946;2023-02-20T10:05:46;101440.34;;;11.83;57.50
38022;BME280;23832;43.216;27.946;2023-02-20T10:07:48;101441.34;;;11.82;56.99
38022;BME280;23832;43.216;27.946;2023-02-20T10:09:50;101447.94;;;11.78;56.82
38022;BME280;23832;43.216;27.946;2023-02-20T10:11:56;101450.88;;;11.75;56.14
38022;BME280;23832;43.216;27.946;2023-02-20T10:13:59;101443.94;;;11.74;56.83
38022;BME280;23832;43.216;27.946;2023-02-20T10:16:10;101446.41;;;11.76;56.82
38022;BME280;23832;43.216;27.946;2023-02-20T10:18:18;101448.22;;;11.75;56.49
38022;BME280;23832;43.216;27.946;2023-02-20T10:20:26;101445.41;;;11.77;56.95
38022;BME280;23832;43.216;27.946;2023-02-20T10:22:32;101446.13;;;11.79;57.03
38022;BME280;23832;43.216;27.946;2023-02-20T10:24:41;101443.00;;;11.83;57.61
38022;BME280;23832;43.216;27.946;2023-02-20T10:26:53;101442.19;;;11.91;58.00
38022;BME280;23832;43.216;27.946;2023-02-20T10:28:58;101442.22;;;11.99;58.35
38022;BME280;23832;43.216;27.946;2023-02-20T10:31:04;101447.69;;;12.06;57.51
38022;BME280;23832;43.216;27.946;2023-02-20T10:33:14;101441.72;;;12.12;57.18
38022;BME280;23832;43.216;27.946;2023-02-20T10:35:19;101435.31;;;12.14;56.63
38022;BME280;23832;43.216;27.946;2023-02-20T10:37:26;101416.66;;;12.16;55.83
38022;BME280;23832;43.216;27.946;2023-02-20T10:39:29;101421.09;;;12.15;55.47
38022;BME280;23832;43.216;27.946;2023-02-20T10:41:33;101412.19;;;12.16;55.69
38022;BME280;23832;43.216;27.946;2023-02-20T10:43:40;101417.94;;;12.20;55.84
38022;BME280;23832;43.216;27.946;2023-02-20T10:45:46;101420.28;;;12.23;55.27